Cinderella 1 — SBLK — position and weather

sailwx.info

Track history (hours):
 
Tides and Currents Weather Stations Pressure Air Temp Water Temp Dewpoint Dewpoint Depression Visibility Wind Speed Wind Dir Waves Ship Positions

Cinderella 1

Last reported at 2018-Jun-25 14:01 UTC. Time now 2018-Jun-25 14:15 UTC.
Position N 59°20' E 018°11'.

Length 42 m; draft 1.1 m.

Type: Passenger vessel. MMSI: 265524530.

Date/timePositionNaut miles runAvg speedWind from/ knotsBaromVisibWave heightAir tempDewpointWater temp
2018-Jun-25 14:01N 59°20' E 018°11'714.0
2018-Jun-25 13:30N 59°24' E 018°21'1511.7
2018-Jun-25 12:14N 59°28' E 018°50'1 4.4
2018-Jun-25 12:00N 59°29' E 018°50'5 5.3
2018-Jun-25 11:01N 59°25' E 018°54'1 7.4
2018-Jun-25 10:55N 59°25' E 018°55'5 9.3
2018-Jun-25 10:25N 59°29' E 018°50'4 5.9
2018-Jun-25 09:48N 59°27' E 018°44'411.1
2018-Jun-25 09:28N 59°25' E 018°38'716.1
2018-Jun-25 09:00N 59°25' E 018°23'611.5
2018-Jun-25 08:31N 59°21' E 018°15'510.7
2018-Jun-25 08:00N 59°20' E 018°05'0 0.0
2018-Jun-25 07:30N 59°20' E 018°05'0 0.0
2018-Jun-25 07:00N 59°20' E 018°05'0 0.0
2018-Jun-25 06:30N 59°20' E 018°05'0 0.0
2018-Jun-25 06:00N 59°20' E 018°05'0 0.0
2018-Jun-25 05:30N 59°20' E 018°05'0 0.0
2018-Jun-25 05:00N 59°20' E 018°05'0 0.0
2018-Jun-25 04:30N 59°20' E 018°05'0 0.0
2018-Jun-25 04:00N 59°20' E 018°05'0 0.0
2018-Jun-25 03:30N 59°20' E 018°05'0 0.0
2018-Jun-25 03:00N 59°20' E 018°05'0 0.0
2018-Jun-25 02:30N 59°20' E 018°05'0 0.0
2018-Jun-25 02:00N 59°20' E 018°05'0 0.0
2018-Jun-25 01:30N 59°20' E 018°05'0 0.0
2018-Jun-25 01:00N 59°20' E 018°05'0 0.0
2018-Jun-25 00:30N 59°20' E 018°05'0 0.0
2018-Jun-25 00:00N 59°20' E 018°05'0 0.0
2018-Jun-24 23:30N 59°20' E 018°05'0 0.0
2018-Jun-24 23:00N 59°20' E 018°05'0 0.0
2018-Jun-24 22:30N 59°20' E 018°05'0 0.0
2018-Jun-24 22:00N 59°20' E 018°05'0 0.0
2018-Jun-24 21:30N 59°20' E 018°05'0 0.0
2018-Jun-24 21:00N 59°20' E 018°05'0 0.0
2018-Jun-24 20:30N 59°20' E 018°05'0 0.0
2018-Jun-24 20:00N 59°20' E 018°05'510.1
2018-Jun-24 19:30N 59°21' E 018°14'611.3
2018-Jun-24 19:00N 59°25' E 018°22'1311.9
2018-Jun-24 17:54N 59°28' E 018°48'2 4.8
2018-Jun-24 17:31N 59°27' E 018°51'8 6.0
2018-Jun-24 16:13N 59°25' E 018°37'415.4
2018-Jun-24 15:59N 59°25' E 018°30'511.1
2018-Jun-24 15:30N 59°23' E 018°20'816.6
2018-Jun-24 15:00N 59°19' E 018°07'1 2.0
2018-Jun-24 14:31N 59°20' E 018°05'5 9.6
2018-Jun-24 14:00N 59°21' E 018°14'611.2
2018-Jun-24 13:31N 59°25' E 018°22'12 9.0
2018-Jun-24 12:07N 59°27' E 018°46'215.8
2018-Jun-24 11:58N 59°27' E 018°51'3 5.3
2018-Jun-24 11:24N 59°25' E 018°54'1 1.6
2018-Jun-24 10:55N 59°25' E 018°55'2 4.1
2018-Jun-24 10:30N 59°27' E 018°53'10 9.1
2018-Jun-24 09:24N 59°24' E 018°34'614.3
2018-Jun-24 08:58N 59°25' E 018°22'511.7
2018-Jun-24 08:30N 59°21' E 018°14'510.1
2018-Jun-24 08:00N 59°20' E 018°05'0 0.0
2018-Jun-24 07:30N 59°20' E 018°05'0 0.0
2018-Jun-24 07:00N 59°20' E 018°05'0 0.0
2018-Jun-24 06:30N 59°20' E 018°05'0 0.0
2018-Jun-24 06:00N 59°20' E 018°05'0 0.0
2018-Jun-24 05:30N 59°20' E 018°05'0 0.0
2018-Jun-24 05:00N 59°20' E 018°05'0 0.0
2018-Jun-24 04:30N 59°20' E 018°05'0 0.0
2018-Jun-24 04:00N 59°20' E 018°05'0 0.0
2018-Jun-24 03:30N 59°20' E 018°05'0 0.0
2018-Jun-24 03:00N 59°20' E 018°05'0 0.0
2018-Jun-24 02:30N 59°20' E 018°05'0 0.0
2018-Jun-24 02:00N 59°20' E 018°05'0 0.0
2018-Jun-24 01:30N 59°20' E 018°05'0 0.0
2018-Jun-24 01:00N 59°20' E 018°05'0 0.0
2018-Jun-24 00:30N 59°20' E 018°05'0 0.0
2018-Jun-24 00:00N 59°20' E 018°05'0 0.0
2018-Jun-23 23:30N 59°20' E 018°05'0 0.0
2018-Jun-23 23:00N 59°20' E 018°05'0 0.0
2018-Jun-23 22:30N 59°20' E 018°05'0 0.0
2018-Jun-23 22:00N 59°20' E 018°05'0 0.0
2018-Jun-23 21:30N 59°20' E 018°05'0 0.0
2018-Jun-23 21:00N 59°20' E 018°05'0 0.0
2018-Jun-23 20:30N 59°20' E 018°05'0 0.0
2018-Jun-23 20:00N 59°20' E 018°05'3 5.0
2018-Jun-23 19:30N 59°19' E 018°09'815.7
2018-Jun-23 19:00N 59°24' E 018°21'612.7
2018-Jun-23 18:30N 59°24' E 018°34'711.1
2018-Jun-23 17:51N 59°28' E 018°46'2 5.4
2018-Jun-23 17:29N 59°28' E 018°50'6 5.0
2018-Jun-23 16:21N 59°26' E 018°39'411.7
2018-Jun-23 16:00N 59°25' E 018°32'611.2
2018-Jun-23 15:30N 59°24' E 018°21'816.4
2018-Jun-23 15:00N 59°19' E 018°09'2 4.1
2018-Jun-23 14:30N 59°20' E 018°05'5 9.2
2018-Jun-23 14:01N 59°21' E 018°14'611.2
2018-Jun-23 13:30N 59°25' E 018°22'612.5
2018-Jun-23 13:00N 59°24' E 018°34'7 8.2
2018-Jun-23 12:09N 59°27' E 018°46'313.6
2018-Jun-23 11:58N 59°27' E 018°51'3 5.6
2018-Jun-23 11:29N 59°25' E 018°55'1 1.7
2018-Jun-23 10:54N 59°24' E 018°54'5 9.7
2018-Jun-23 10:24N 59°29' E 018°50'3 5.5
2018-Jun-23 09:49N 59°27' E 018°45'411.1
2018-Jun-23 09:28N 59°25' E 018°38'817.0
2018-Jun-23 09:00N 59°26' E 018°22'611.5
2018-Jun-23 08:30N 59°21' E 018°15'510.6
2018-Jun-23 08:01N 59°20' E 018°05'0 0.0
2018-Jun-23 07:31N 59°20' E 018°05'0 0.0
2018-Jun-23 07:01N 59°20' E 018°05'0 0.0
2018-Jun-23 06:30N 59°20' E 018°05'0 0.0
2018-Jun-23 06:00N 59°20' E 018°05'0 0.0
2018-Jun-23 05:30N 59°20' E 018°05'0 0.0
2018-Jun-23 05:00N 59°20' E 018°05'0 0.0
2018-Jun-23 04:30N 59°20' E 018°05'0 0.0
2018-Jun-23 04:00N 59°20' E 018°05'0 0.0
2018-Jun-23 03:30N 59°20' E 018°05'0 0.0
2018-Jun-23 03:00N 59°20' E 018°05'0 0.0
2018-Jun-23 02:30N 59°20' E 018°05'0 0.0
2018-Jun-23 02:00N 59°20' E 018°05'0 0.0
2018-Jun-23 01:30N 59°20' E 018°05'0 0.0
2018-Jun-23 01:00N 59°20' E 018°05'0 0.0
2018-Jun-23 00:30N 59°20' E 018°05'0 0.0
2018-Jun-23 00:00N 59°20' E 018°05'0 0.0
2018-Jun-22 23:30N 59°20' E 018°05'0 0.0
2018-Jun-22 23:00N 59°20' E 018°05'0 0.0
2018-Jun-22 22:30N 59°20' E 018°05'0 0.0
2018-Jun-22 22:00N 59°20' E 018°05'0 0.0
2018-Jun-22 21:30N 59°20' E 018°05'0 0.0
2018-Jun-22 21:00N 59°20' E 018°05'0 0.0
2018-Jun-22 20:30N 59°20' E 018°05'0 0.0
2018-Jun-22 20:00N 59°20' E 018°05'3 5.0
2018-Jun-22 19:30N 59°19' E 018°09'815.7
2018-Jun-22 19:01N 59°24' E 018°21'712.6
2018-Jun-22 18:28N 59°24' E 018°35'612.3
2018-Jun-22 17:59N 59°27' E 018°44'3 6.5
2018-Jun-22 17:31N 59°29' E 018°50'5 8.0
2018-Jun-22 16:52N 59°24' E 018°53'513.0
2018-Jun-22 16:29N 59°26' E 018°44'713.6
2018-Jun-22 15:59N 59°25' E 018°32'511.2
2018-Jun-22 15:31N 59°24' E 018°21'815.7
2018-Jun-22 15:00N 59°19' E 018°09'2 4.5
2018-Jun-22 14:30N 59°20' E 018°05'3 5.6
2018-Jun-22 14:00N 59°19' E 018°10'714.7
2018-Jun-22 13:30N 59°24' E 018°21'611.5
2018-Jun-22 12:57N 59°24' E 018°34'811.7
2018-Jun-22 12:14N 59°28' E 018°48'2 6.6
2018-Jun-22 11:59N 59°30' E 018°50'5 4.9
2018-Jun-22 10:54N 59°25' E 018°54'2 5.0
2018-Jun-22 10:30N 59°27' E 018°53'5 8.3
2018-Jun-22 09:57N 59°27' E 018°44'4 8.4
2018-Jun-22 09:29N 59°25' E 018°38'816.3
2018-Jun-22 09:00N 59°25' E 018°22'510.9
2018-Jun-22 08:30N 59°21' E 018°14'510.1
2018-Jun-22 08:00N 59°20' E 018°05'0 0.1
2018-Jun-22 07:31N 59°20' E 018°05'0 0.0
2018-Jun-22 07:00N 59°20' E 018°05'0 0.0
2018-Jun-22 06:30N 59°20' E 018°05'0 0.0
2018-Jun-22 06:00N 59°20' E 018°05'0 0.0
2018-Jun-22 05:31N 59°20' E 018°05'0 0.0
2018-Jun-22 05:01N 59°20' E 018°05'0 0.0
2018-Jun-22 04:31N 59°20' E 018°05'0 0.0
2018-Jun-22 04:01N 59°20' E 018°05'0 0.0
2018-Jun-22 03:31N 59°20' E 018°05'0 0.0
2018-Jun-22 03:00N 59°20' E 018°05'0 0.0
2018-Jun-22 02:30N 59°20' E 018°05'0 0.0
2018-Jun-22 02:00N 59°20' E 018°05'0 0.0
2018-Jun-22 01:31N 59°20' E 018°05'0 0.0
2018-Jun-22 01:01N 59°20' E 018°05'0 0.0
2018-Jun-22 00:30N 59°20' E 018°05'0 0.0
2018-Jun-22 00:00N 59°20' E 018°05'0 0.0
2018-Jun-21 23:30N 59°20' E 018°05'0 0.0
2018-Jun-21 23:01N 59°20' E 018°05'0 0.0
2018-Jun-21 22:31N 59°20' E 018°05'0 0.0
2018-Jun-21 22:00N 59°20' E 018°05'0 0.0
2018-Jun-21 21:30N 59°20' E 018°05'0 0.0
2018-Jun-21 21:01N 59°20' E 018°05'1 2.9
2018-Jun-21 20:31N 59°19' E 018°07'917.5
2018-Jun-21 20:00N 59°24' E 018°21'815.5
2018-Jun-21 19:30N 59°24' E 018°36'0 0.1
2018-Jun-21 17:04N 59°24' E 018°37'121.0
2018-Jun-21 17:00N 59°24' E 018°34'612.7
2018-Jun-21 16:31N 59°25' E 018°22'510.5
2018-Jun-21 16:00N 59°21' E 018°14'510.1
2018-Jun-21 15:30N 59°20' E 018°05'0 0.0
2018-Jun-21 15:00N 59°20' E 018°05'0 0.0
2018-Jun-21 14:30N 59°20' E 018°05'3 5.0
2018-Jun-21 14:00N 59°19' E 018°09'815.2
2018-Jun-21 13:29N 59°24' E 018°21'612.5
2018-Jun-21 13:01N 59°24' E 018°33'811.0
2018-Jun-21 12:14N 59°28' E 018°48'2 7.7
2018-Jun-21 12:00N 59°30' E 018°50'5 9.8
2018-Jun-21 11:30N 59°25' E 018°55'1 1.4
2018-Jun-21 10:48N 59°25' E 018°54'2 7.1
2018-Jun-21 10:30N 59°27' E 018°55'5 8.6
2018-Jun-21 09:53N 59°27' E 018°45'410.0
2018-Jun-21 09:29N 59°25' E 018°38'815.4
2018-Jun-21 08:58N 59°25' E 018°22'511.8
2018-Jun-21 08:30N 59°21' E 018°14'510.1
2018-Jun-21 08:01N 59°20' E 018°05'0 0.1
2018-Jun-21 07:30N 59°20' E 018°05'0 0.0
2018-Jun-21 07:00N 59°20' E 018°05'0 0.0
2018-Jun-21 06:30N 59°20' E 018°05'0 0.0
2018-Jun-21 06:00N 59°20' E 018°05'0 0.0
2018-Jun-21 05:30N 59°20' E 018°05'0 0.1
2018-Jun-21 05:00N 59°20' E 018°05'0 0.1
2018-Jun-21 04:30N 59°20' E 018°05'0 0.0
2018-Jun-21 04:00N 59°20' E 018°05'0 0.0
2018-Jun-21 03:30N 59°20' E 018°05'0 0.0
2018-Jun-21 03:00N 59°20' E 018°05'0 0.0
2018-Jun-21 02:30N 59°20' E 018°05'0 0.0
2018-Jun-21 02:00N 59°20' E 018°05'0 0.0
2018-Jun-21 01:30N 59°20' E 018°05'0 0.0
2018-Jun-21 01:00N 59°20' E 018°05'0 0.0
2018-Jun-21 00:30N 59°20' E 018°05'0 0.0
2018-Jun-21 00:00N 59°20' E 018°05'0 0.0
2018-Jun-20 23:30N 59°20' E 018°05'0 0.0
2018-Jun-20 23:00N 59°20' E 018°05'0 0.0
2018-Jun-20 22:30N 59°20' E 018°05'0 0.0
2018-Jun-20 22:00N 59°20' E 018°05'0 0.0
2018-Jun-20 21:30N 59°20' E 018°05'0 0.0
2018-Jun-20 21:00N 59°20' E 018°05'3 5.0
2018-Jun-20 20:30N 59°19' E 018°09'815.7
2018-Jun-20 20:00N 59°24' E 018°21'612.4
2018-Jun-20 19:30N 59°24' E 018°34'715.1
2018-Jun-20 19:01N 59°26' E 018°48'3 6.3
2018-Jun-20 18:29N 59°25' E 018°55'4 9.0
2018-Jun-20 18:00N 59°29' E 018°50'3 5.5
2018-Jun-20 17:26N 59°27' E 018°44'510.9
2018-Jun-20 16:59N 59°24' E 018°37'715.4
2018-Jun-20 16:31N 59°25' E 018°22'510.9
2018-Jun-20 16:01N 59°21' E 018°14'510.1
2018-Jun-20 15:30N 59°20' E 018°05'2 4.4
2018-Jun-20 15:00N 59°19' E 018°09'815.4
2018-Jun-20 14:30N 59°24' E 018°21'611.9
2018-Jun-20 14:00N 59°25' E 018°33'1111.7
2018-Jun-20 13:03N 59°25' E 018°54'110.3
2018-Jun-20 12:57N 59°26' E 018°55'510.3
2018-Jun-20 12:29N 59°30' E 018°50'5 8.4
2018-Jun-20 11:50N 59°27' E 018°41'411.7
2018-Jun-20 11:30N 59°24' E 018°35'713.5
2018-Jun-20 10:59N 59°24' E 018°22'5 9.7
2018-Jun-20 10:30N 59°21' E 018°14'510.2
2018-Jun-20 10:00N 59°20' E 018°05'0 0.2
2018-Jun-20 09:30N 59°20' E 018°05'0 0.0
2018-Jun-20 09:00N 59°20' E 018°05'0 0.0
2018-Jun-20 08:30N 59°20' E 018°05'0 0.0
2018-Jun-20 08:00N 59°20' E 018°05'0 0.0
2018-Jun-20 07:30N 59°20' E 018°05'0 0.0
2018-Jun-20 07:00N 59°20' E 018°05'0 0.0
2018-Jun-20 06:30N 59°20' E 018°05'0 0.0
2018-Jun-20 06:00N 59°20' E 018°05'0 0.0
2018-Jun-20 05:30N 59°20' E 018°05'0 0.0
2018-Jun-20 05:00N 59°20' E 018°05'0 0.0
2018-Jun-20 04:30N 59°20' E 018°05'0 0.0
2018-Jun-20 04:00N 59°20' E 018°05'0 0.0
2018-Jun-20 03:31N 59°20' E 018°05'0 0.0
2018-Jun-20 03:00N 59°20' E 018°05'0 0.0
2018-Jun-20 02:30N 59°20' E 018°05'0 0.0
2018-Jun-20 02:00N 59°20' E 018°05'0 0.0
2018-Jun-20 01:30N 59°20' E 018°05'0 0.0
2018-Jun-20 01:00N 59°20' E 018°05'0 0.0
2018-Jun-20 00:30N 59°20' E 018°05'0 0.0
2018-Jun-20 00:00N 59°20' E 018°05'0 0.0
2018-Jun-19 23:30N 59°20' E 018°05'0 0.0
2018-Jun-19 23:00N 59°20' E 018°05'0 0.0
2018-Jun-19 22:30N 59°20' E 018°05'0 0.0
2018-Jun-19 22:00N 59°20' E 018°05'0 0.0
2018-Jun-19 21:30N 59°20' E 018°05'0 0.0
2018-Jun-19 21:00N 59°20' E 018°05'0 0.5
2018-Jun-19 20:30N 59°20' E 018°05'611.8
2018-Jun-19 20:01N 59°22' E 018°16'612.6
2018-Jun-19 19:30N 59°27' E 018°24'815.4
2018-Jun-19 18:58N 59°26' E 018°41'710.4
2018-Jun-19 18:16N 59°25' E 018°55'2 6.3
2018-Jun-19 18:00N 59°27' E 018°56'7 8.8
2018-Jun-19 17:09N 59°27' E 018°41'2 8.5
2018-Jun-19 16:57N 59°26' E 018°38'817.7
2018-Jun-19 16:31N 59°26' E 018°23'611.2
2018-Jun-19 16:00N 59°22' E 018°15'611.5
2018-Jun-19 15:30N 59°20' E 018°05'1 1.5
2018-Jun-19 15:00N 59°19' E 018°06'815.7
2018-Jun-19 14:30N 59°23' E 018°20'611.0
2018-Jun-19 14:00N 59°26' E 018°28'1015.6
2018-Jun-19 13:20N 59°26' E 018°48'3 7.8
2018-Jun-19 12:54N 59°25' E 018°55'3 6.8
2018-Jun-19 12:29N 59°27' E 018°51'5 6.5
2018-Jun-19 11:39N 59°27' E 018°41'210.3
2018-Jun-19 11:26N 59°25' E 018°38'716.7
2018-Jun-19 11:00N 59°25' E 018°23'611.6
2018-Jun-19 10:30N 59°21' E 018°15'510.9
2018-Jun-19 10:00N 59°20' E 018°05'0 0.1
2018-Jun-19 09:30N 59°20' E 018°05'0 0.0
2018-Jun-19 09:00N 59°20' E 018°05'0 0.0
2018-Jun-19 08:31N 59°20' E 018°05'0 0.0
2018-Jun-19 08:00N 59°20' E 018°05'0 0.0
2018-Jun-19 07:30N 59°20' E 018°05'0 0.0
2018-Jun-19 07:00N 59°20' E 018°05'0 0.0
2018-Jun-19 06:30N 59°20' E 018°05'0 0.0
2018-Jun-19 06:00N 59°20' E 018°05'0 0.0
2018-Jun-19 05:30N 59°20' E 018°05'0 0.0
2018-Jun-19 05:00N 59°20' E 018°05'0 0.0
2018-Jun-19 04:30N 59°20' E 018°05'0 0.0
2018-Jun-19 04:00N 59°20' E 018°05'0 0.0
2018-Jun-19 03:30N 59°20' E 018°05'0 0.0
2018-Jun-19 03:01N 59°20' E 018°05'0 0.0
2018-Jun-19 02:30N 59°20' E 018°05'0 0.0
2018-Jun-19 02:00N 59°20' E 018°05'0 0.0
2018-Jun-19 01:30N 59°20' E 018°05'0 0.0
2018-Jun-19 01:00N 59°20' E 018°05'0 0.0
2018-Jun-19 00:30N 59°20' E 018°05'0 0.0
2018-Jun-19 00:00N 59°20' E 018°05'0 0.0
2018-Jun-18 23:30N 59°20' E 018°05'0 0.0
2018-Jun-18 23:00N 59°20' E 018°05'0 0.0
2018-Jun-18 22:30N 59°20' E 018°05'0 0.0
2018-Jun-18 22:00N 59°20' E 018°05'0 0.0
2018-Jun-18 21:30N 59°20' E 018°05'0 0.0
2018-Jun-18 21:00N 59°20' E 018°05'0 0.3
2018-Jun-18 20:30N 59°20' E 018°05'611.9
2018-Jun-18 20:00N 59°22' E 018°16'713.3
2018-Jun-18 19:31N 59°27' E 018°25'814.9
2018-Jun-18 18:58N 59°26' E 018°41'8 9.5
2018-Jun-18 18:11N 59°27' E 018°55'410.7
2018-Jun-18 17:49N 59°29' E 018°50'5 8.0
2018-Jun-18 17:11N 59°27' E 018°41'312.4
2018-Jun-18 16:57N 59°24' E 018°37'716.6
2018-Jun-18 16:30N 59°25' E 018°22'611.7
2018-Jun-18 16:00N 59°21' E 018°14'510.0
2018-Jun-18 15:30N 59°20' E 018°05'1 1.1
2018-Jun-18 15:01N 59°20' E 018°05'713.5
2018-Jun-18 14:31N 59°23' E 018°17'611.5
2018-Jun-18 14:00N 59°27' E 018°26'1512.8
2018-Jun-18 12:49N 59°26' E 018°56'410.1
2018-Jun-18 12:23N 59°29' E 018°50'9 9.1
2018-Jun-18 11:23N 59°24' E 018°35'616.7
2018-Jun-18 11:00N 59°25' E 018°22'611.6
2018-Jun-18 10:30N 59°21' E 018°14'510.1
2018-Jun-18 10:01N 59°20' E 018°05'0 0.1
2018-Jun-18 09:30N 59°20' E 018°05'0 0.0
2018-Jun-18 09:00N 59°20' E 018°05'0 0.0
2018-Jun-18 08:31N 59°20' E 018°05'0 0.0
2018-Jun-18 08:00N 59°20' E 018°05'0 0.0
2018-Jun-18 07:30N 59°20' E 018°05'0 0.0
2018-Jun-18 07:00N 59°20' E 018°05'0 0.0
2018-Jun-18 06:30N 59°20' E 018°05'0 0.0
2018-Jun-18 06:00N 59°20' E 018°05'0 0.0
2018-Jun-18 05:30N 59°20' E 018°05'0 0.0
2018-Jun-18 05:00N 59°20' E 018°05'0 0.0
2018-Jun-18 04:30N 59°20' E 018°05'0 0.0
2018-Jun-18 04:00N 59°20' E 018°05'0 0.0
2018-Jun-18 03:30N 59°20' E 018°05'0 0.0
2018-Jun-18 03:00N 59°20' E 018°05'0 0.0
2018-Jun-18 02:30N 59°20' E 018°05'0 0.0
2018-Jun-18 02:00N 59°20' E 018°05'0 0.0
2018-Jun-18 01:30N 59°20' E 018°05'0 0.0
2018-Jun-18 01:00N 59°20' E 018°05'0 0.0
2018-Jun-18 00:30N 59°20' E 018°05'0 0.0
2018-Jun-18 00:00N 59°20' E 018°05'0 0.0
2018-Jun-17 23:30N 59°20' E 018°05'0 0.0
2018-Jun-17 23:00N 59°20' E 018°05'0 0.0
2018-Jun-17 22:30N 59°20' E 018°05'0 0.0
2018-Jun-17 22:00N 59°20' E 018°05'0 0.0
2018-Jun-17 21:30N 59°20' E 018°05'0 0.0
2018-Jun-17 21:00N 59°20' E 018°05'0 0.0
2018-Jun-17 20:30N 59°20' E 018°05'0 0.0
2018-Jun-17 20:00N 59°20' E 018°05'0 0.0
2018-Jun-17 19:30N 59°20' E 018°05'1 2.0
2018-Jun-17 19:00N 59°19' E 018°06'815.9
2018-Jun-17 18:30N 59°23' E 018°20'711.5
2018-Jun-17 17:55N 59°25' E 018°33'712.3
2018-Jun-17 17:23N 59°27' E 018°44'3 7.4
2018-Jun-17 16:56N 59°29' E 018°50'5 9.8
2018-Jun-17 16:27N 59°25' E 018°55'6 8.9
2018-Jun-17 15:45N 59°26' E 018°42'2 8.2
2018-Jun-17 15:28N 59°25' E 018°38'815.9
2018-Jun-17 14:59N 59°25' E 018°23'612.5
2018-Jun-17 14:30N 59°21' E 018°14'510.1
2018-Jun-17 14:01N 59°20' E 018°05'1 2.9
2018-Jun-17 13:31N 59°19' E 018°07'815.7
2018-Jun-17 12:59N 59°24' E 018°21'14 9.3
2018-Jun-17 11:32N 59°27' E 018°46'113.2
2018-Jun-17 11:26N 59°28' E 018°49'4 7.7
2018-Jun-17 10:55N 59°25' E 018°55'2 5.4
2018-Jun-17 10:30N 59°25' E 018°50'4 6.2
2018-Jun-17 09:54N 59°28' E 018°45'511.7
2018-Jun-17 09:26N 59°24' E 018°37'715.5
2018-Jun-17 08:58N 59°25' E 018°22'511.8
2018-Jun-17 08:31N 59°21' E 018°14'510.2
2018-Jun-17 08:00N 59°20' E 018°05'0 0.0
2018-Jun-17 07:30N 59°20' E 018°05'0 0.0
2018-Jun-17 07:00N 59°20' E 018°05'0 0.0
2018-Jun-17 06:30N 59°20' E 018°05'0 0.0
2018-Jun-17 06:00N 59°20' E 018°05'0 0.0
2018-Jun-17 05:30N 59°20' E 018°05'0 0.0
2018-Jun-17 05:00N 59°20' E 018°05'0 0.0
2018-Jun-17 04:30N 59°20' E 018°05'0 0.0
2018-Jun-17 04:00N 59°20' E 018°05'0 0.0
2018-Jun-17 03:30N 59°20' E 018°05'0 0.0
2018-Jun-17 03:00N 59°20' E 018°05'0 0.0
2018-Jun-17 02:30N 59°20' E 018°05'0 0.0
2018-Jun-17 02:00N 59°20' E 018°05'0 0.0
2018-Jun-17 01:30N 59°20' E 018°05'0 0.0
2018-Jun-17 01:00N 59°20' E 018°05'0 0.0
2018-Jun-17 00:30N 59°20' E 018°05'0 0.0
2018-Jun-17 00:00N 59°20' E 018°05'0 0.0
2018-Jun-16 23:30N 59°20' E 018°05'0 0.0
2018-Jun-16 23:00N 59°20' E 018°05'0 0.0
2018-Jun-16 22:30N 59°20' E 018°05'0 0.0
2018-Jun-16 22:00N 59°20' E 018°05'0 0.0
2018-Jun-16 21:30N 59°20' E 018°05'0 0.0
2018-Jun-16 21:00N 59°20' E 018°05'0 0.0
2018-Jun-16 20:30N 59°20' E 018°05'0 0.0
2018-Jun-16 20:00N 59°20' E 018°05'0 0.0
2018-Jun-16 19:30N 59°20' E 018°05'1 1.2
2018-Jun-16 19:00N 59°19' E 018°06'715.0
2018-Jun-16 18:30N 59°23' E 018°19'611.3
2018-Jun-16 18:00N 59°26' E 018°27'814.4
2018-Jun-16 17:25N 59°27' E 018°43'4 9.5
2018-Jun-16 17:00N 59°29' E 018°50'4 8.2
2018-Jun-16 16:29N 59°26' E 018°56'9 9.8
2018-Jun-16 15:33N 59°25' E 018°38'122.9
2018-Jun-16 15:30N 59°24' E 018°37'714.6
2018-Jun-16 15:00N 59°25' E 018°22'713.1
2018-Jun-16 14:30N 59°20' E 018°13'4 8.5
2018-Jun-16 14:00N 59°20' E 018°05'4 8.1
2018-Jun-16 13:31N 59°20' E 018°13'713.4
2018-Jun-16 13:00N 59°25' E 018°22'1313.3
2018-Jun-16 12:00N 59°28' E 018°48'4 7.2
2018-Jun-16 11:30N 59°27' E 018°55'3 4.0
2018-Jun-16 10:48N 59°25' E 018°51'517.4
2018-Jun-16 10:31N 59°30' E 018°51'6 9.4
2018-Jun-16 09:50N 59°26' E 018°41'412.8
2018-Jun-16 09:30N 59°24' E 018°33'611.5
2018-Jun-16 09:00N 59°25' E 018°22'510.3
2018-Jun-16 08:30N 59°21' E 018°14'510.2
2018-Jun-16 08:00N 59°20' E 018°05'0 0.1
2018-Jun-16 07:31N 59°20' E 018°05'0 0.0
2018-Jun-16 07:00N 59°20' E 018°05'0 0.0
2018-Jun-16 06:31N 59°20' E 018°05'0 0.0
2018-Jun-16 06:00N 59°20' E 018°05'0 0.0
2018-Jun-16 05:30N 59°20' E 018°05'0 0.0
2018-Jun-16 05:00N 59°20' E 018°05'0 0.0
2018-Jun-16 04:30N 59°20' E 018°05'0 0.0
2018-Jun-16 04:01N 59°20' E 018°05'0 0.0
2018-Jun-16 03:30N 59°20' E 018°05'0 0.0
2018-Jun-16 03:01N 59°20' E 018°05'0 0.0
2018-Jun-16 02:30N 59°20' E 018°05'0 0.0
2018-Jun-16 02:00N 59°20' E 018°05'0 0.0
2018-Jun-16 01:30N 59°20' E 018°05'0 0.0
2018-Jun-16 01:01N 59°20' E 018°05'0 0.0
2018-Jun-16 00:31N 59°20' E 018°05'0 0.0
2018-Jun-16 00:00N 59°20' E 018°05'0 0.0
2018-Jun-15 23:31N 59°20' E 018°05'0 0.0
2018-Jun-15 23:00N 59°20' E 018°05'0 0.0
2018-Jun-15 22:30N 59°20' E 018°05'0 0.0
2018-Jun-15 22:01N 59°20' E 018°05'0 0.0
2018-Jun-15 21:30N 59°20' E 018°05'0 0.0
2018-Jun-15 21:01N 59°20' E 018°05'0 0.0
2018-Jun-15 20:30N 59°20' E 018°05'611.7
2018-Jun-15 20:00N 59°22' E 018°16'713.5
2018-Jun-15 19:30N 59°27' E 018°25'1016.1
2018-Jun-15 18:51N 59°26' E 018°46'410.3
2018-Jun-15 18:26N 59°25' E 018°54'2 4.9
2018-Jun-15 18:01N 59°27' E 018°53'6 7.7
2018-Jun-15 17:12N 59°27' E 018°41'2 7.9
2018-Jun-15 17:00N 59°26' E 018°38'816.5
2018-Jun-15 16:30N 59°26' E 018°22'611.6
2018-Jun-15 16:00N 59°21' E 018°15'510.5
2018-Jun-15 15:31N 59°20' E 018°05'0 0.1
2018-Jun-15 15:00N 59°20' E 018°05'713.7
2018-Jun-15 14:31N 59°23' E 018°17'  
Track history (hours):
 
Tides and Currents Weather Stations Pressure Air Temp Water Temp Dewpoint Dewpoint Depression Visibility Wind Speed Wind Dir Waves Ship Positions

Cinderella 1

Last reported at 2018-Jun-25 14:01 UTC. Time now 2018-Jun-25 14:15 UTC.
Position N 59°20' E 018°11'.

Length 42 m; draft 1.1 m.

Type: Passenger vessel. MMSI: 265524530.

Date/timePositionNaut miles runAvg speedWind from/ knotsBaromVisibWave heightAir tempDewpointWater temp
2018-Jun-25 14:01N 59°20' E 018°11'714.0
2018-Jun-25 13:30N 59°24' E 018°21'1511.7
2018-Jun-25 12:14N 59°28' E 018°50'1 4.4
2018-Jun-25 12:00N 59°29' E 018°50'5 5.3
2018-Jun-25 11:01N 59°25' E 018°54'1 7.4
2018-Jun-25 10:55N 59°25' E 018°55'5 9.3
2018-Jun-25 10:25N 59°29' E 018°50'4 5.9
2018-Jun-25 09:48N 59°27' E 018°44'411.1
2018-Jun-25 09:28N 59°25' E 018°38'716.1
2018-Jun-25 09:00N 59°25' E 018°23'611.5
2018-Jun-25 08:31N 59°21' E 018°15'510.7
2018-Jun-25 08:00N 59°20' E 018°05'0 0.0
2018-Jun-25 07:30N 59°20' E 018°05'0 0.0
2018-Jun-25 07:00N 59°20' E 018°05'0 0.0
2018-Jun-25 06:30N 59°20' E 018°05'0 0.0
2018-Jun-25 06:00N 59°20' E 018°05'0 0.0
2018-Jun-25 05:30N 59°20' E 018°05'0 0.0
2018-Jun-25 05:00N 59°20' E 018°05'0 0.0
2018-Jun-25 04:30N 59°20' E 018°05'0 0.0
2018-Jun-25 04:00N 59°20' E 018°05'0 0.0
2018-Jun-25 03:30N 59°20' E 018°05'0 0.0
2018-Jun-25 03:00N 59°20' E 018°05'0 0.0
2018-Jun-25 02:30N 59°20' E 018°05'0 0.0
2018-Jun-25 02:00N 59°20' E 018°05'0 0.0
2018-Jun-25 01:30N 59°20' E 018°05'0 0.0
2018-Jun-25 01:00N 59°20' E 018°05'0 0.0
2018-Jun-25 00:30N 59°20' E 018°05'0 0.0
2018-Jun-25 00:00N 59°20' E 018°05'0 0.0
2018-Jun-24 23:30N 59°20' E 018°05'0 0.0
2018-Jun-24 23:00N 59°20' E 018°05'0 0.0
2018-Jun-24 22:30N 59°20' E 018°05'0 0.0
2018-Jun-24 22:00N 59°20' E 018°05'0 0.0
2018-Jun-24 21:30N 59°20' E 018°05'0 0.0
2018-Jun-24 21:00N 59°20' E 018°05'0 0.0
2018-Jun-24 20:30N 59°20' E 018°05'0 0.0
2018-Jun-24 20:00N 59°20' E 018°05'510.1
2018-Jun-24 19:30N 59°21' E 018°14'611.3
2018-Jun-24 19:00N 59°25' E 018°22'1311.9
2018-Jun-24 17:54N 59°28' E 018°48'2 4.8
2018-Jun-24 17:31N 59°27' E 018°51'8 6.0
2018-Jun-24 16:13N 59°25' E 018°37'415.4
2018-Jun-24 15:59N 59°25' E 018°30'511.1
2018-Jun-24 15:30N 59°23' E 018°20'816.6
2018-Jun-24 15:00N 59°19' E 018°07'1 2.0
2018-Jun-24 14:31N 59°20' E 018°05'5 9.6
2018-Jun-24 14:00N 59°21' E 018°14'611.2
2018-Jun-24 13:31N 59°25' E 018°22'12 9.0
2018-Jun-24 12:07N 59°27' E 018°46'215.8
2018-Jun-24 11:58N 59°27' E 018°51'3 5.3
2018-Jun-24 11:24N 59°25' E 018°54'1 1.6
2018-Jun-24 10:55N 59°25' E 018°55'2 4.1
2018-Jun-24 10:30N 59°27' E 018°53'10 9.1
2018-Jun-24 09:24N 59°24' E 018°34'614.3
2018-Jun-24 08:58N 59°25' E 018°22'511.7
2018-Jun-24 08:30N 59°21' E 018°14'510.1
2018-Jun-24 08:00N 59°20' E 018°05'0 0.0
2018-Jun-24 07:30N 59°20' E 018°05'0 0.0
2018-Jun-24 07:00N 59°20' E 018°05'0 0.0
2018-Jun-24 06:30N 59°20' E 018°05'0 0.0
2018-Jun-24 06:00N 59°20' E 018°05'0 0.0
2018-Jun-24 05:30N 59°20' E 018°05'0 0.0
2018-Jun-24 05:00N 59°20' E 018°05'0 0.0
2018-Jun-24 04:30N 59°20' E 018°05'0 0.0
2018-Jun-24 04:00N 59°20' E 018°05'0 0.0
2018-Jun-24 03:30N 59°20' E 018°05'0 0.0
2018-Jun-24 03:00N 59°20' E 018°05'0 0.0
2018-Jun-24 02:30N 59°20' E 018°05'0 0.0
2018-Jun-24 02:00N 59°20' E 018°05'0 0.0
2018-Jun-24 01:30N 59°20' E 018°05'0 0.0
2018-Jun-24 01:00N 59°20' E 018°05'0 0.0
2018-Jun-24 00:30N 59°20' E 018°05'0 0.0
2018-Jun-24 00:00N 59°20' E 018°05'0 0.0
2018-Jun-23 23:30N 59°20' E 018°05'0 0.0
2018-Jun-23 23:00N 59°20' E 018°05'0 0.0
2018-Jun-23 22:30N 59°20' E 018°05'0 0.0
2018-Jun-23 22:00N 59°20' E 018°05'0 0.0
2018-Jun-23 21:30N 59°20' E 018°05'0 0.0
2018-Jun-23 21:00N 59°20' E 018°05'0 0.0
2018-Jun-23 20:30N 59°20' E 018°05'0 0.0
2018-Jun-23 20:00N 59°20' E 018°05'3 5.0
2018-Jun-23 19:30N 59°19' E 018°09'815.7
2018-Jun-23 19:00N 59°24' E 018°21'612.7
2018-Jun-23 18:30N 59°24' E 018°34'711.1
2018-Jun-23 17:51N 59°28' E 018°46'2 5.4
2018-Jun-23 17:29N 59°28' E 018°50'6 5.0
2018-Jun-23 16:21N 59°26' E 018°39'411.7
2018-Jun-23 16:00N 59°25' E 018°32'611.2
2018-Jun-23 15:30N 59°24' E 018°21'816.4
2018-Jun-23 15:00N 59°19' E 018°09'2 4.1
2018-Jun-23 14:30N 59°20' E 018°05'5 9.2
2018-Jun-23 14:01N 59°21' E 018°14'611.2
2018-Jun-23 13:30N 59°25' E 018°22'612.5
2018-Jun-23 13:00N 59°24' E 018°34'7 8.2
2018-Jun-23 12:09N 59°27' E 018°46'313.6
2018-Jun-23 11:58N 59°27' E 018°51'3 5.6
2018-Jun-23 11:29N 59°25' E 018°55'1 1.7
2018-Jun-23 10:54N 59°24' E 018°54'5 9.7
2018-Jun-23 10:24N 59°29' E 018°50'3 5.5
2018-Jun-23 09:49N 59°27' E 018°45'411.1
2018-Jun-23 09:28N 59°25' E 018°38'817.0
2018-Jun-23 09:00N 59°26' E 018°22'611.5
2018-Jun-23 08:30N 59°21' E 018°15'510.6
2018-Jun-23 08:01N 59°20' E 018°05'0 0.0
2018-Jun-23 07:31N 59°20' E 018°05'0 0.0
2018-Jun-23 07:01N 59°20' E 018°05'0 0.0
2018-Jun-23 06:30N 59°20' E 018°05'0 0.0
2018-Jun-23 06:00N 59°20' E 018°05'0 0.0
2018-Jun-23 05:30N 59°20' E 018°05'0 0.0
2018-Jun-23 05:00N 59°20' E 018°05'0 0.0
2018-Jun-23 04:30N 59°20' E 018°05'0 0.0
2018-Jun-23 04:00N 59°20' E 018°05'0 0.0
2018-Jun-23 03:30N 59°20' E 018°05'0 0.0
2018-Jun-23 03:00N 59°20' E 018°05'0 0.0
2018-Jun-23 02:30N 59°20' E 018°05'0 0.0
2018-Jun-23 02:00N 59°20' E 018°05'0 0.0
2018-Jun-23 01:30N 59°20' E 018°05'0 0.0
2018-Jun-23 01:00N 59°20' E 018°05'0 0.0
2018-Jun-23 00:30N 59°20' E 018°05'0 0.0
2018-Jun-23 00:00N 59°20' E 018°05'0 0.0
2018-Jun-22 23:30N 59°20' E 018°05'0 0.0
2018-Jun-22 23:00N 59°20' E 018°05'0 0.0
2018-Jun-22 22:30N 59°20' E 018°05'0 0.0
2018-Jun-22 22:00N 59°20' E 018°05'0 0.0
2018-Jun-22 21:30N 59°20' E 018°05'0 0.0
2018-Jun-22 21:00N 59°20' E 018°05'0 0.0
2018-Jun-22 20:30N 59°20' E 018°05'0 0.0
2018-Jun-22 20:00N 59°20' E 018°05'3 5.0
2018-Jun-22 19:30N 59°19' E 018°09'815.7
2018-Jun-22 19:01N 59°24' E 018°21'712.6
2018-Jun-22 18:28N 59°24' E 018°35'612.3
2018-Jun-22 17:59N 59°27' E 018°44'3 6.5
2018-Jun-22 17:31N 59°29' E 018°50'5 8.0
2018-Jun-22 16:52N 59°24' E 018°53'513.0
2018-Jun-22 16:29N 59°26' E 018°44'713.6
2018-Jun-22 15:59N 59°25' E 018°32'511.2
2018-Jun-22 15:31N 59°24' E 018°21'815.7
2018-Jun-22 15:00N 59°19' E 018°09'2 4.5
2018-Jun-22 14:30N 59°20' E 018°05'3 5.6
2018-Jun-22 14:00N 59°19' E 018°10'714.7
2018-Jun-22 13:30N 59°24' E 018°21'611.5
2018-Jun-22 12:57N 59°24' E 018°34'811.7
2018-Jun-22 12:14N 59°28' E 018°48'2 6.6
2018-Jun-22 11:59N 59°30' E 018°50'5 4.9
2018-Jun-22 10:54N 59°25' E 018°54'2 5.0
2018-Jun-22 10:30N 59°27' E 018°53'5 8.3
2018-Jun-22 09:57N 59°27' E 018°44'4 8.4
2018-Jun-22 09:29N 59°25' E 018°38'816.3
2018-Jun-22 09:00N 59°25' E 018°22'510.9
2018-Jun-22 08:30N 59°21' E 018°14'510.1
2018-Jun-22 08:00N 59°20' E 018°05'0 0.1
2018-Jun-22 07:31N 59°20' E 018°05'0 0.0
2018-Jun-22 07:00N 59°20' E 018°05'0 0.0
2018-Jun-22 06:30N 59°20' E 018°05'0 0.0
2018-Jun-22 06:00N 59°20' E 018°05'0 0.0
2018-Jun-22 05:31N 59°20' E 018°05'0 0.0
2018-Jun-22 05:01N 59°20' E 018°05'0 0.0
2018-Jun-22 04:31N 59°20' E 018°05'0 0.0
2018-Jun-22 04:01N 59°20' E 018°05'0 0.0
2018-Jun-22 03:31N 59°20' E 018°05'0 0.0
2018-Jun-22 03:00N 59°20' E 018°05'0 0.0
2018-Jun-22 02:30N 59°20' E 018°05'0 0.0
2018-Jun-22 02:00N 59°20' E 018°05'0 0.0
2018-Jun-22 01:31N 59°20' E 018°05'0 0.0
2018-Jun-22 01:01N 59°20' E 018°05'0 0.0
2018-Jun-22 00:30N 59°20' E 018°05'0 0.0
2018-Jun-22 00:00N 59°20' E 018°05'0 0.0
2018-Jun-21 23:30N 59°20' E 018°05'0 0.0
2018-Jun-21 23:01N 59°20' E 018°05'0 0.0
2018-Jun-21 22:31N 59°20' E 018°05'0 0.0
2018-Jun-21 22:00N 59°20' E 018°05'0 0.0
2018-Jun-21 21:30N 59°20' E 018°05'0 0.0
2018-Jun-21 21:01N 59°20' E 018°05'1 2.9
2018-Jun-21 20:31N 59°19' E 018°07'917.5
2018-Jun-21 20:00N 59°24' E 018°21'815.5
2018-Jun-21 19:30N 59°24' E 018°36'0 0.1
2018-Jun-21 17:04N 59°24' E 018°37'121.0
2018-Jun-21 17:00N 59°24' E 018°34'612.7
2018-Jun-21 16:31N 59°25' E 018°22'510.5
2018-Jun-21 16:00N 59°21' E 018°14'510.1
2018-Jun-21 15:30N 59°20' E 018°05'0 0.0
2018-Jun-21 15:00N 59°20' E 018°05'0 0.0
2018-Jun-21 14:30N 59°20' E 018°05'3 5.0
2018-Jun-21 14:00N 59°19' E 018°09'815.2
2018-Jun-21 13:29N 59°24' E 018°21'612.5
2018-Jun-21 13:01N 59°24' E 018°33'811.0
2018-Jun-21 12:14N 59°28' E 018°48'2 7.7
2018-Jun-21 12:00N 59°30' E 018°50'5 9.8
2018-Jun-21 11:30N 59°25' E 018°55'1 1.4
2018-Jun-21 10:48N 59°25' E 018°54'2 7.1
2018-Jun-21 10:30N 59°27' E 018°55'5 8.6
2018-Jun-21 09:53N 59°27' E 018°45'410.0
2018-Jun-21 09:29N 59°25' E 018°38'815.4
2018-Jun-21 08:58N 59°25' E 018°22'511.8
2018-Jun-21 08:30N 59°21' E 018°14'510.1
2018-Jun-21 08:01N 59°20' E 018°05'0 0.1
2018-Jun-21 07:30N 59°20' E 018°05'0 0.0
2018-Jun-21 07:00N 59°20' E 018°05'0 0.0
2018-Jun-21 06:30N 59°20' E 018°05'0 0.0
2018-Jun-21 06:00N 59°20' E 018°05'0 0.0
2018-Jun-21 05:30N 59°20' E 018°05'0 0.1
2018-Jun-21 05:00N 59°20' E 018°05'0 0.1
2018-Jun-21 04:30N 59°20' E 018°05'0 0.0
2018-Jun-21 04:00N 59°20' E 018°05'0 0.0
2018-Jun-21 03:30N 59°20' E 018°05'0 0.0
2018-Jun-21 03:00N 59°20' E 018°05'0 0.0
2018-Jun-21 02:30N 59°20' E 018°05'0 0.0
2018-Jun-21 02:00N 59°20' E 018°05'0 0.0
2018-Jun-21 01:30N 59°20' E 018°05'0 0.0
2018-Jun-21 01:00N 59°20' E 018°05'0 0.0
2018-Jun-21 00:30N 59°20' E 018°05'0 0.0
2018-Jun-21 00:00N 59°20' E 018°05'0 0.0
2018-Jun-20 23:30N 59°20' E 018°05'0 0.0
2018-Jun-20 23:00N 59°20' E 018°05'0 0.0
2018-Jun-20 22:30N 59°20' E 018°05'0 0.0
2018-Jun-20 22:00N 59°20' E 018°05'0 0.0
2018-Jun-20 21:30N 59°20' E 018°05'0 0.0
2018-Jun-20 21:00N 59°20' E 018°05'3 5.0
2018-Jun-20 20:30N 59°19' E 018°09'815.7
2018-Jun-20 20:00N 59°24' E 018°21'612.4
2018-Jun-20 19:30N 59°24' E 018°34'715.1
2018-Jun-20 19:01N 59°26' E 018°48'3 6.3
2018-Jun-20 18:29N 59°25' E 018°55'4 9.0
2018-Jun-20 18:00N 59°29' E 018°50'3 5.5
2018-Jun-20 17:26N 59°27' E 018°44'510.9
2018-Jun-20 16:59N 59°24' E 018°37'715.4
2018-Jun-20 16:31N 59°25' E 018°22'510.9
2018-Jun-20 16:01N 59°21' E 018°14'510.1
2018-Jun-20 15:30N 59°20' E 018°05'2 4.4
2018-Jun-20 15:00N 59°19' E 018°09'815.4
2018-Jun-20 14:30N 59°24' E 018°21'611.9
2018-Jun-20 14:00N 59°25' E 018°33'1111.7
2018-Jun-20 13:03N 59°25' E 018°54'110.3
2018-Jun-20 12:57N 59°26' E 018°55'510.3
2018-Jun-20 12:29N 59°30' E 018°50'5 8.4
2018-Jun-20 11:50N 59°27' E 018°41'411.7
2018-Jun-20 11:30N 59°24' E 018°35'713.5
2018-Jun-20 10:59N 59°24' E 018°22'5 9.7
2018-Jun-20 10:30N 59°21' E 018°14'510.2
2018-Jun-20 10:00N 59°20' E 018°05'0 0.2
2018-Jun-20 09:30N 59°20' E 018°05'0 0.0
2018-Jun-20 09:00N 59°20' E 018°05'0 0.0
2018-Jun-20 08:30N 59°20' E 018°05'0 0.0
2018-Jun-20 08:00N 59°20' E 018°05'0 0.0
2018-Jun-20 07:30N 59°20' E 018°05'0 0.0
2018-Jun-20 07:00N 59°20' E 018°05'0 0.0
2018-Jun-20 06:30N 59°20' E 018°05'0 0.0
2018-Jun-20 06:00N 59°20' E 018°05'0 0.0
2018-Jun-20 05:30N 59°20' E 018°05'0 0.0
2018-Jun-20 05:00N 59°20' E 018°05'0 0.0
2018-Jun-20 04:30N 59°20' E 018°05'0 0.0
2018-Jun-20 04:00N 59°20' E 018°05'0 0.0
2018-Jun-20 03:31N 59°20' E 018°05'0 0.0
2018-Jun-20 03:00N 59°20' E 018°05'0 0.0
2018-Jun-20 02:30N 59°20' E 018°05'0 0.0
2018-Jun-20 02:00N 59°20' E 018°05'0 0.0
2018-Jun-20 01:30N 59°20' E 018°05'0 0.0
2018-Jun-20 01:00N 59°20' E 018°05'0 0.0
2018-Jun-20 00:30N 59°20' E 018°05'0 0.0
2018-Jun-20 00:00N 59°20' E 018°05'0 0.0
2018-Jun-19 23:30N 59°20' E 018°05'0 0.0
2018-Jun-19 23:00N 59°20' E 018°05'0 0.0
2018-Jun-19 22:30N 59°20' E 018°05'0 0.0
2018-Jun-19 22:00N 59°20' E 018°05'0 0.0
2018-Jun-19 21:30N 59°20' E 018°05'0 0.0
2018-Jun-19 21:00N 59°20' E 018°05'0 0.5
2018-Jun-19 20:30N 59°20' E 018°05'611.8
2018-Jun-19 20:01N 59°22' E 018°16'612.6
2018-Jun-19 19:30N 59°27' E 018°24'815.4
2018-Jun-19 18:58N 59°26' E 018°41'710.4
2018-Jun-19 18:16N 59°25' E 018°55'2 6.3
2018-Jun-19 18:00N 59°27' E 018°56'7 8.8
2018-Jun-19 17:09N 59°27' E 018°41'2 8.5
2018-Jun-19 16:57N 59°26' E 018°38'817.7
2018-Jun-19 16:31N 59°26' E 018°23'611.2
2018-Jun-19 16:00N 59°22' E 018°15'611.5
2018-Jun-19 15:30N 59°20' E 018°05'1 1.5
2018-Jun-19 15:00N 59°19' E 018°06'815.7
2018-Jun-19 14:30N 59°23' E 018°20'611.0
2018-Jun-19 14:00N 59°26' E 018°28'1015.6
2018-Jun-19 13:20N 59°26' E 018°48'3 7.8
2018-Jun-19 12:54N 59°25' E 018°55'3 6.8
2018-Jun-19 12:29N 59°27' E 018°51'5 6.5
2018-Jun-19 11:39N 59°27' E 018°41'210.3
2018-Jun-19 11:26N 59°25' E 018°38'716.7
2018-Jun-19 11:00N 59°25' E 018°23'611.6
2018-Jun-19 10:30N 59°21' E 018°15'510.9
2018-Jun-19 10:00N 59°20' E 018°05'0 0.1
2018-Jun-19 09:30N 59°20' E 018°05'0 0.0
2018-Jun-19 09:00N 59°20' E 018°05'0 0.0
2018-Jun-19 08:31N 59°20' E 018°05'0 0.0
2018-Jun-19 08:00N 59°20' E 018°05'0 0.0
2018-Jun-19 07:30N 59°20' E 018°05'0 0.0
2018-Jun-19 07:00N 59°20' E 018°05'0 0.0
2018-Jun-19 06:30N 59°20' E 018°05'0 0.0
2018-Jun-19 06:00N 59°20' E 018°05'0 0.0
2018-Jun-19 05:30N 59°20' E 018°05'0 0.0
2018-Jun-19 05:00N 59°20' E 018°05'0 0.0
2018-Jun-19 04:30N 59°20' E 018°05'0 0.0
2018-Jun-19 04:00N 59°20' E 018°05'0 0.0
2018-Jun-19 03:30N 59°20' E 018°05'0 0.0
2018-Jun-19 03:01N 59°20' E 018°05'0 0.0
2018-Jun-19 02:30N 59°20' E 018°05'0 0.0
2018-Jun-19 02:00N 59°20' E 018°05'0 0.0
2018-Jun-19 01:30N 59°20' E 018°05'0 0.0
2018-Jun-19 01:00N 59°20' E 018°05'0 0.0
2018-Jun-19 00:30N 59°20' E 018°05'0 0.0
2018-Jun-19 00:00N 59°20' E 018°05'0 0.0
2018-Jun-18 23:30N 59°20' E 018°05'0 0.0
2018-Jun-18 23:00N 59°20' E 018°05'0 0.0
2018-Jun-18 22:30N 59°20' E 018°05'0 0.0
2018-Jun-18 22:00N 59°20' E 018°05'0 0.0
2018-Jun-18 21:30N 59°20' E 018°05'0 0.0
2018-Jun-18 21:00N 59°20' E 018°05'0 0.3
2018-Jun-18 20:30N 59°20' E 018°05'611.9
2018-Jun-18 20:00N 59°22' E 018°16'713.3
2018-Jun-18 19:31N 59°27' E 018°25'814.9
2018-Jun-18 18:58N 59°26' E 018°41'8 9.5
2018-Jun-18 18:11N 59°27' E 018°55'410.7
2018-Jun-18 17:49N 59°29' E 018°50'5 8.0
2018-Jun-18 17:11N 59°27' E 018°41'312.4
2018-Jun-18 16:57N 59°24' E 018°37'716.6
2018-Jun-18 16:30N 59°25' E 018°22'611.7
2018-Jun-18 16:00N 59°21' E 018°14'510.0
2018-Jun-18 15:30N 59°20' E 018°05'1 1.1
2018-Jun-18 15:01N 59°20' E 018°05'713.5
2018-Jun-18 14:31N 59°23' E 018°17'611.5
2018-Jun-18 14:00N 59°27' E 018°26'1512.8
2018-Jun-18 12:49N 59°26' E 018°56'410.1
2018-Jun-18 12:23N 59°29' E 018°50'9 9.1
2018-Jun-18 11:23N 59°24' E 018°35'616.7
2018-Jun-18 11:00N 59°25' E 018°22'611.6
2018-Jun-18 10:30N 59°21' E 018°14'510.1
2018-Jun-18 10:01N 59°20' E 018°05'0 0.1
2018-Jun-18 09:30N 59°20' E 018°05'0 0.0
2018-Jun-18 09:00N 59°20' E 018°05'0 0.0
2018-Jun-18 08:31N 59°20' E 018°05'0 0.0
2018-Jun-18 08:00N 59°20' E 018°05'0 0.0
2018-Jun-18 07:30N 59°20' E 018°05'0 0.0
2018-Jun-18 07:00N 59°20' E 018°05'0 0.0
2018-Jun-18 06:30N 59°20' E 018°05'0 0.0
2018-Jun-18 06:00N 59°20' E 018°05'0 0.0
2018-Jun-18 05:30N 59°20' E 018°05'0 0.0
2018-Jun-18 05:00N 59°20' E 018°05'0 0.0
2018-Jun-18 04:30N 59°20' E 018°05'0 0.0
2018-Jun-18 04:00N 59°20' E 018°05'0 0.0
2018-Jun-18 03:30N 59°20' E 018°05'0 0.0
2018-Jun-18 03:00N 59°20' E 018°05'0 0.0
2018-Jun-18 02:30N 59°20' E 018°05'0 0.0
2018-Jun-18 02:00N 59°20' E 018°05'0 0.0
2018-Jun-18 01:30N 59°20' E 018°05'0 0.0
2018-Jun-18 01:00N 59°20' E 018°05'0 0.0
2018-Jun-18 00:30N 59°20' E 018°05'0 0.0
2018-Jun-18 00:00N 59°20' E 018°05'0 0.0
2018-Jun-17 23:30N 59°20' E 018°05'0 0.0
2018-Jun-17 23:00N 59°20' E 018°05'0 0.0
2018-Jun-17 22:30N 59°20' E 018°05'0 0.0
2018-Jun-17 22:00N 59°20' E 018°05'0 0.0
2018-Jun-17 21:30N 59°20' E 018°05'0 0.0
2018-Jun-17 21:00N 59°20' E 018°05'0 0.0
2018-Jun-17 20:30N 59°20' E 018°05'0 0.0
2018-Jun-17 20:00N 59°20' E 018°05'0 0.0
2018-Jun-17 19:30N 59°20' E 018°05'1 2.0
2018-Jun-17 19:00N 59°19' E 018°06'815.9
2018-Jun-17 18:30N 59°23' E 018°20'711.5
2018-Jun-17 17:55N 59°25' E 018°33'712.3
2018-Jun-17 17:23N 59°27' E 018°44'3 7.4
2018-Jun-17 16:56N 59°29' E 018°50'5 9.8
2018-Jun-17 16:27N 59°25' E 018°55'6 8.9
2018-Jun-17 15:45N 59°26' E 018°42'2 8.2
2018-Jun-17 15:28N 59°25' E 018°38'815.9
2018-Jun-17 14:59N 59°25' E 018°23'612.5
2018-Jun-17 14:30N 59°21' E 018°14'510.1
2018-Jun-17 14:01N 59°20' E 018°05'1 2.9
2018-Jun-17 13:31N 59°19' E 018°07'815.7
2018-Jun-17 12:59N 59°24' E 018°21'14 9.3
2018-Jun-17 11:32N 59°27' E 018°46'113.2
2018-Jun-17 11:26N 59°28' E 018°49'4 7.7
2018-Jun-17 10:55N 59°25' E 018°55'2 5.4
2018-Jun-17 10:30N 59°25' E 018°50'4 6.2
2018-Jun-17 09:54N 59°28' E 018°45'511.7
2018-Jun-17 09:26N 59°24' E 018°37'715.5
2018-Jun-17 08:58N 59°25' E 018°22'511.8
2018-Jun-17 08:31N 59°21' E 018°14'510.2
2018-Jun-17 08:00N 59°20' E 018°05'0 0.0
2018-Jun-17 07:30N 59°20' E 018°05'0 0.0
2018-Jun-17 07:00N 59°20' E 018°05'0 0.0
2018-Jun-17 06:30N 59°20' E 018°05'0 0.0
2018-Jun-17 06:00N 59°20' E 018°05'0 0.0
2018-Jun-17 05:30N 59°20' E 018°05'0 0.0
2018-Jun-17 05:00N 59°20' E 018°05'0 0.0
2018-Jun-17 04:30N 59°20' E 018°05'0 0.0
2018-Jun-17 04:00N 59°20' E 018°05'0 0.0
2018-Jun-17 03:30N 59°20' E 018°05'0 0.0
2018-Jun-17 03:00N 59°20' E 018°05'0 0.0
2018-Jun-17 02:30N 59°20' E 018°05'0 0.0
2018-Jun-17 02:00N 59°20' E 018°05'0 0.0
2018-Jun-17 01:30N 59°20' E 018°05'0 0.0
2018-Jun-17 01:00N 59°20' E 018°05'0 0.0
2018-Jun-17 00:30N 59°20' E 018°05'0 0.0
2018-Jun-17 00:00N 59°20' E 018°05'0 0.0
2018-Jun-16 23:30N 59°20' E 018°05'0 0.0
2018-Jun-16 23:00N 59°20' E 018°05'0 0.0
2018-Jun-16 22:30N 59°20' E 018°05'0 0.0
2018-Jun-16 22:00N 59°20' E 018°05'0 0.0
2018-Jun-16 21:30N 59°20' E 018°05'0 0.0
2018-Jun-16 21:00N 59°20' E 018°05'0 0.0
2018-Jun-16 20:30N 59°20' E 018°05'0 0.0
2018-Jun-16 20:00N 59°20' E 018°05'0 0.0
2018-Jun-16 19:30N 59°20' E 018°05'1 1.2
2018-Jun-16 19:00N 59°19' E 018°06'715.0
2018-Jun-16 18:30N 59°23' E 018°19'611.3
2018-Jun-16 18:00N 59°26' E 018°27'814.4
2018-Jun-16 17:25N 59°27' E 018°43'4 9.5
2018-Jun-16 17:00N 59°29' E 018°50'4 8.2
2018-Jun-16 16:29N 59°26' E 018°56'9 9.8
2018-Jun-16 15:33N 59°25' E 018°38'122.9
2018-Jun-16 15:30N 59°24' E 018°37'714.6
2018-Jun-16 15:00N 59°25' E 018°22'713.1
2018-Jun-16 14:30N 59°20' E 018°13'4 8.5
2018-Jun-16 14:00N 59°20' E 018°05'4 8.1
2018-Jun-16 13:31N 59°20' E 018°13'713.4
2018-Jun-16 13:00N 59°25' E 018°22'1313.3
2018-Jun-16 12:00N 59°28' E 018°48'4 7.2
2018-Jun-16 11:30N 59°27' E 018°55'3 4.0
2018-Jun-16 10:48N 59°25' E 018°51'517.4
2018-Jun-16 10:31N 59°30' E 018°51'6 9.4
2018-Jun-16 09:50N 59°26' E 018°41'412.8
2018-Jun-16 09:30N 59°24' E 018°33'611.5
2018-Jun-16 09:00N 59°25' E 018°22'510.3
2018-Jun-16 08:30N 59°21' E 018°14'510.2
2018-Jun-16 08:00N 59°20' E 018°05'0 0.1
2018-Jun-16 07:31N 59°20' E 018°05'0 0.0
2018-Jun-16 07:00N 59°20' E 018°05'0 0.0
2018-Jun-16 06:31N 59°20' E 018°05'0 0.0
2018-Jun-16 06:00N 59°20' E 018°05'0 0.0
2018-Jun-16 05:30N 59°20' E 018°05'0 0.0
2018-Jun-16 05:00N 59°20' E 018°05'0 0.0
2018-Jun-16 04:30N 59°20' E 018°05'0 0.0
2018-Jun-16 04:01N 59°20' E 018°05'0 0.0
2018-Jun-16 03:30N 59°20' E 018°05'0 0.0
2018-Jun-16 03:01N 59°20' E 018°05'0 0.0
2018-Jun-16 02:30N 59°20' E 018°05'0 0.0
2018-Jun-16 02:00N 59°20' E 018°05'0 0.0
2018-Jun-16 01:30N 59°20' E 018°05'0 0.0
2018-Jun-16 01:01N 59°20' E 018°05'0 0.0
2018-Jun-16 00:31N 59°20' E 018°05'0 0.0
2018-Jun-16 00:00N 59°20' E 018°05'0 0.0
2018-Jun-15 23:31N 59°20' E 018°05'0 0.0
2018-Jun-15 23:00N 59°20' E 018°05'0 0.0
2018-Jun-15 22:30N 59°20' E 018°05'0 0.0
2018-Jun-15 22:01N 59°20' E 018°05'0 0.0
2018-Jun-15 21:30N 59°20' E 018°05'0 0.0
2018-Jun-15 21:01N 59°20' E 018°05'0 0.0
2018-Jun-15 20:30N 59°20' E 018°05'611.7
2018-Jun-15 20:00N 59°22' E 018°16'713.5
2018-Jun-15 19:30N 59°27' E 018°25'1016.1
2018-Jun-15 18:51N 59°26' E 018°46'410.3
2018-Jun-15 18:26N 59°25' E 018°54'2 4.9
2018-Jun-15 18:01N 59°27' E 018°53'6 7.7
2018-Jun-15 17:12N 59°27' E 018°41'2 7.9
2018-Jun-15 17:00N 59°26' E 018°38'816.5
2018-Jun-15 16:30N 59°26' E 018°22'611.6
2018-Jun-15 16:00N 59°21' E 018°15'510.5
2018-Jun-15 15:31N 59°20' E 018°05'0 0.1
2018-Jun-15 15:00N 59°20' E 018°05'713.7
2018-Jun-15 14:31N 59°23' E 018°17'  

Dump ship's entire track history